HALF-HOURLY OBSERVATIONS INDEX

016

Northwest Pastoral

COOBER PEDY AIRPORT

Site: 016090
Alt: 225.0m
4km SW of COOBER PEDY


  Time     Wind        Temp  DP   Baro     Rain since   Rain past  Vis(m), Cloud(base in m), Weather
  local        km/h                         9am  last   hr   10m    
Mon 10:30   NE 11/ 17  32.5 -1.7  1015.5    0.0   0.0   0.0   0.0   10000 
Mon 11:00   NE 15/ 20  33.1 -1.3  1015.5    0.0   0.0   0.0   0.0   10000 
Mon 11:30  ENE 15/ 22  34.0 -0.6  1015.3    0.0   0.0   0.0   0.0   10000 
Mon 12:00   NE 13/ 22  34.1 -0.5  1015.0    0.0   0.0   0.0   0.0   10000 
Mon 12:30   NE 17/ 24  35.2 -1.0  1014.7    0.0   0.0   0.0   0.0   10000 
Mon 13:00  ENE  9/ 17  35.9 -0.5  1014.4    0.0   0.0   0.0   0.0   10000 
Mon 13:30   NE  7/ 17  36.1 -0.3  1014.0    0.0   0.0   0.0   0.0   10000 
Mon 14:00  ESE 19/ 22  37.0 -1.1  1013.4    0.0   0.0   0.0   0.0   10000 
Mon 14:30  SSE 15/ 24  36.9 -1.1  1012.9    0.0   0.0   0.0   0.0   10000 
Mon 15:00  ESE 11/ 20  38.2 -0.2  1012.5    0.0   0.0   0.0   0.0   10000 
Mon 15:30   SE 15/ 24  38.1 -1.9  1012.1    0.0   0.0   0.0   0.0   10000 
Mon 16:00  SSE 15/ 26  38.0 -1.9  1011.7    0.0   0.0   0.0   0.0   10000 

ERNABELLA (PUKATJA)

Site: 016097
Alt: 703.2m
354km WNW of OODNADATTA


  Time     Wind        Temp  DP   Baro     Rain since   Rain past  Vis(m), Cloud(base in m), Weather
  local        km/h                         9am  last   hr   10m    
Mon 10:30   NE 24/ 32  30.5  3.5  1017.5    0.0   0.0   0.0   0.0   ----- 
Mon 11:00  ENE 20/ 28  31.8  3.8  1017.6    0.0   0.0   0.0   0.0   ----- 
Mon 11:30   NE 20/ 30  32.7  3.6  1017.3    0.0   0.0   0.0   0.0   ----- 
Mon 12:00   NE 20/ 30  34.1  3.8  1016.8    0.0   0.0   0.0   0.0   ----- 
Mon 12:30  ENE 20/ 30  34.8  3.4  1016.2    0.0   0.0   0.0   0.0   ----- 
Mon 13:00  NNE 19/ 26  35.8  3.1  1015.9    0.0   0.0   0.0   0.0   ----- 
Mon 13:30  ENE 11/ 24  35.6  1.8  1015.5    0.0   0.0   0.0   0.0   ----- 
Mon 14:00   NE 20/ 30  37.2  1.8  1014.8    0.0   0.0   0.0   0.0   ----- 
Mon 14:30   NE 13/ 24  37.4  2.0  1014.4    0.0   0.0   0.0   0.0   ----- 
Mon 15:00    E 22/ 30  38.0  1.1  1014.0    0.0   0.0   0.0   0.0   ----- 
Mon 15:30    E 17/ 26  38.4  0.0  1013.6    0.0   0.0   0.0   0.0   ----- 
Mon 16:00  ENE 22/ 32  38.3 -0.1  1013.3    0.0   0.0   0.0   0.0   ----- 

ROXBY DOWNS (OLYMPIC DAM AERODROME)

Site: 016096
Alt: 99.2m
76km N of WOOMERA


  Time     Wind        Temp  DP   Baro     Rain since   Rain past  Vis(m), Cloud(base in m), Weather
  local        km/h                         9am  last   hr   10m    
Mon 10:30    E 13/ 19  31.6  0.9  1014.9    0.0   0.0   0.0   0.0   10000 
Mon 11:00  ENE 11/ 20  33.4  1.3  1015.1    0.0   0.0   0.0   0.0   10000 
Mon 11:30   NE 11/ 17  33.2 -1.2  1014.8    0.0   0.0   0.0   0.0   10000 
Mon 12:00  NNE 11/ 17  34.5 -2.9  1014.5    0.0   0.0   0.0   0.0   10000 
Mon 12:30   NE 11/ 20  35.0 -2.6  1014.3    0.0   0.0   0.0   0.0   10000 
Mon 13:00    E  9/ 19  36.0 -3.4  1013.9    0.0   0.0   0.0   0.0   10000 
Mon 13:30    S 11/ 32  37.3 -2.4  1013.5    0.0   0.0   0.0   0.0   10000 
Mon 14:00   NE  7/ 15  37.5 -2.3  1012.9    0.0   0.0   0.0   0.0   10000 
Mon 14:30    S  9/ 15  36.9 -4.5  1012.5    0.0   0.0   0.0   0.0   10000 
Mon 15:00  WSW  7/ 13  37.8 -3.9  1012.0    0.0   0.0   0.0   0.0   10000 
Mon 15:30  ENE 13/ 20  37.5 -4.1  1011.7    0.0   0.0   0.0   0.0   10000 
Mon 16:00    W  9/ 15  38.0 -5.8  1011.2    0.0   0.0   0.0   0.0   10000 

TARCOOLA AERO

Site: 016098
Alt: 123.0m
180km NNE of CEDUNA


  Time     Wind        Temp  DP   Baro     Rain since   Rain past  Vis(m), Cloud(base in m), Weather
  local        km/h                         9am  last   hr   10m    
Mon 10:30    E 13/ 20  29.3  5.4  1015.9    0.0   0.0   0.0   0.0   ----- 
Mon 11:00    E 13/ 19  31.0  6.1  1015.8    0.0   0.0   0.0   0.0   ----- 
Mon 11:30    E 13/ 19  32.5  5.1  1015.4    0.0   0.0   0.0   0.0   ----- 
Mon 12:00    E  9/ 15  34.1  3.8  1015.2    0.0   0.0   0.0   0.0   ----- 
Mon 12:30  ENE  9/ 19  35.0  2.5  1014.7    0.0   0.0   0.0   0.0   ----- 
Mon 13:00    N  7/ 17  36.0  2.1  1014.3    0.0   0.0   0.0   0.0   ----- 
Mon 13:30    N 13/ 20  36.7  1.5  1014.0    0.0   0.0   0.0   0.0   ----- 
Mon 14:00    N  9/ 19  37.4  2.0  1013.8    0.0   0.0   0.0   0.0   ----- 
Mon 14:30    N 13/ 20  38.2  1.3  1013.4    0.0   0.0   0.0   0.0   ----- 
Mon 15:00  SSE 11/ 17  38.1  1.2  1013.0    0.0   0.0   0.0   0.0   ----- 
Mon 15:30  SSW 15/ 24  38.5  1.5  1012.5    0.0   0.0   0.0   0.0   ----- 
Mon 16:00    S 15/ 26  37.5  2.1  1012.2    0.0   0.0   0.0   0.0   ----- 

WOOMERA AERODROME

Site: 016001
Alt: 166.6m
1km NW of WOOMERA


  Time     Wind        Temp  DP   Baro     Rain since   Rain past  Vis(m), Cloud(base in m), Weather
  local        km/h                         9am  last   hr   10m    
Mon 10:30  ESE 20/ 28  29.2  8.8  1015.8    0.0   0.0   0.0   0.0   10000 
Mon 11:00    E 19/ 26  29.9  7.8  1015.6    0.0   0.0   0.0   0.0   10000 
Mon 11:30    E 15/ 26  31.3  6.4  1015.7    0.0   0.0   0.0   0.0   10000 
Mon 12:00  ENE 13/ 20  32.4  3.4  1015.5    0.0   0.0   0.0   0.0   10000 
Mon 12:30  ENE  9/ 22  33.4  1.3  1015.3    0.0   0.0   0.0   0.0   10000 
Mon 13:00    E 11/ 17  35.3 -2.3  1014.9    0.0   0.0   0.0   0.0   10000 
Mon 13:30   NE 13/ 20  35.6 -2.1  1014.3    0.0   0.0   0.0   0.0   10000 
Mon 14:00    E 13/ 20  35.7 -3.6  1013.8    0.0   0.0   0.0   0.0   10000 
Mon 14:30  WNW  7/ 13  36.5 -3.0  1013.4    0.0   0.0   0.0   0.0   10000 
Mon 15:00  WSW 13/ 17  36.6 -3.0  1013.1    0.0   0.0   0.0   0.0   10000 
Mon 15:30  NNW  6/ 15  37.4 -2.4  1012.8    0.0   0.0   0.0   0.0   10000 
Mon 16:00   NW 11/ 17  37.0 -4.4  1012.4    0.0   0.0   0.0   0.0   10000